createdAt,value
2022-10-23T00:00:21.808Z,19.02
2022-10-23T00:03:23.272Z,17.83
2022-10-23T00:06:25.397Z,17.25
2022-10-23T00:09:26.730Z,17.55
2022-10-23T00:12:28.088Z,17.73
2022-10-23T00:15:29.434Z,18.48
2022-10-23T00:18:31.065Z,18.67
2022-10-23T00:21:32.466Z,19.40
2022-10-23T00:24:34.166Z,17.67
2022-10-23T00:27:35.717Z,19.55
2022-10-23T00:30:37.148Z,19.20
2022-10-23T00:33:38.633Z,18.45
2022-10-23T00:36:41.188Z,20.48
2022-10-23T00:39:43.024Z,18.60
2022-10-23T00:42:44.466Z,17.98
2022-10-23T00:45:46.026Z,18.20
2022-10-23T00:48:47.357Z,19.30
2022-10-23T00:52:04.950Z,19.58
2022-10-23T00:55:06.614Z,19.58
2022-10-23T00:58:09.036Z,17.98
2022-10-23T01:01:22.057Z,18.50
2022-10-23T01:04:24.594Z,19.55
2022-10-23T01:07:33.667Z,19.30
2022-10-23T01:10:44.081Z,19.17
2022-10-23T01:13:57.762Z,20.10
2022-10-23T01:17:14.107Z,20.67
2022-10-23T01:20:29.652Z,18.50
2022-10-23T01:23:30.923Z,19.83
2022-10-23T01:27:31.528Z,18.45
2022-10-23T01:33:54.856Z,16.80
2022-10-23T01:37:03.811Z,16.57
2022-10-23T01:40:09.726Z,17.65
2022-10-23T01:43:35.893Z,17.63
2022-10-23T01:46:39.485Z,16.95
2022-10-23T01:49:44.468Z,16.58
2022-10-23T01:52:45.985Z,16.95
2022-10-23T01:55:49.303Z,16.02
2022-10-23T01:58:59.869Z,16.80
2022-10-23T02:02:06.765Z,15.18
2022-10-23T02:05:28.774Z,16.47
2022-10-23T02:08:32.238Z,16.63
2022-10-23T02:11:42.361Z,15.35
2022-10-23T02:15:16.179Z,19.23
2022-10-23T02:18:32.167Z,18.85
2022-10-23T02:21:43.154Z,18.77
2022-10-23T02:24:51.155Z,18.98
2022-10-23T02:27:58.042Z,17.48
2022-10-23T02:31:09.935Z,16.83
2022-10-23T02:34:11.524Z,16.55
2022-10-23T02:37:12.975Z,15.93
2022-10-23T02:40:14.448Z,15.90
2022-10-23T02:43:27.583Z,16.52
2022-10-23T02:46:39.023Z,15.65
2022-10-23T02:50:08.458Z,15.35
2022-10-23T02:53:30.569Z,15.82
2022-10-23T02:56:38.568Z,16.60
2022-10-23T03:00:12.883Z,18.42
2022-10-23T03:03:24.605Z,16.95
2022-10-23T03:06:26.027Z,15.95
2022-10-23T03:09:27.422Z,18.02
2022-10-23T03:12:28.812Z,18.20
2022-10-23T03:15:30.712Z,17.85
2022-10-23T03:18:32.196Z,17.23
2022-10-23T03:21:34.884Z,16.83
2022-10-23T03:24:38.129Z,16.58
2022-10-23T03:27:39.649Z,15.45
2022-10-23T03:30:44.536Z,15.95
2022-10-23T03:33:45.874Z,16.02
2022-10-23T03:36:47.302Z,15.88
2022-10-23T03:39:49.649Z,17.33
2022-10-23T03:42:51.050Z,20.05
2022-10-23T03:45:56.754Z,20.63
2022-10-23T03:49:00.401Z,20.20
2022-10-23T03:52:01.804Z,17.75
2022-10-23T03:55:04.118Z,20.00
2022-10-23T03:58:05.490Z,19.25
2022-10-23T04:01:06.954Z,20.58
2022-10-23T04:04:11.958Z,19.48
2022-10-23T04:07:16.075Z,19.48
2022-10-23T04:10:17.806Z,17.95
2022-10-23T04:13:19.123Z,19.60
2022-10-23T04:16:20.482Z,19.38
2022-10-23T04:19:21.851Z,18.77
2022-10-23T04:22:25.937Z,18.60
2022-10-23T04:25:29.235Z,17.95
2022-10-23T04:28:30.579Z,14.82
2022-10-23T04:31:32.009Z,14.80
2022-10-23T04:34:33.447Z,18.77
2022-10-23T04:37:34.889Z,18.38
2022-10-23T04:40:36.347Z,16.05
2022-10-23T04:43:37.946Z,15.82
2022-10-23T04:46:39.420Z,16.50
2022-10-23T04:49:41.156Z,17.33
2022-10-23T04:52:57.576Z,17.00
2022-10-23T04:56:13.605Z,17.63
2022-10-23T04:59:25.059Z,16.90
2022-10-23T05:02:26.694Z,15.60
2022-10-23T05:05:28.929Z,16.30
2022-10-23T05:08:59.303Z,15.77
2022-10-23T05:12:19.394Z,15.35
2022-10-23T05:15:22.443Z,14.80
2022-10-23T05:18:35.536Z,14.02
2022-10-23T05:21:39.177Z,15.33
2022-10-23T05:24:41.432Z,13.35
2022-10-23T05:27:43.112Z,13.35
2022-10-23T05:30:47.392Z,12.68
2022-10-23T05:33:53.980Z,12.55
2022-10-23T05:36:56.688Z,12.63
2022-10-23T05:39:58.834Z,12.50
2022-10-23T05:43:00.884Z,13.07
2022-10-23T05:46:15.297Z,13.98
2022-10-23T05:49:27.641Z,13.68
2022-10-23T05:52:49.176Z,14.35
2022-10-23T05:56:11.309Z,14.90
2022-10-23T05:59:22.135Z,14.13
2022-10-23T06:02:24.732Z,14.48
2022-10-23T06:08:55.842Z,13.68
2022-10-23T06:11:57.607Z,14.23
2022-10-23T06:14:59.079Z,14.65
2022-10-23T06:18:12.389Z,13.75
2022-10-23T06:21:25.046Z,13.37
2022-10-23T06:24:27.446Z,14.07
2022-10-23T06:27:36.307Z,14.07
2022-10-23T06:30:39.454Z,12.95
2022-10-23T06:33:41.731Z,13.43
2022-10-23T06:36:44.271Z,12.55
2022-10-23T06:40:08.846Z,12.82
2022-10-23T06:43:26.603Z,11.75
2022-10-23T06:46:49.269Z,11.57
2022-10-23T06:50:16.385Z,12.55
2022-10-23T06:53:19.411Z,12.15
2022-10-23T06:56:26.631Z,12.32
2022-10-23T06:59:28.239Z,11.68
2022-10-23T07:02:29.680Z,12.55
2022-10-23T07:05:33.371Z,12.23
2022-10-23T07:08:35.374Z,12.63
2022-10-23T07:11:42.228Z,12.40
2022-10-23T07:14:43.636Z,12.55
2022-10-23T07:17:45.065Z,14.13
2022-10-23T07:20:46.909Z,15.07
2022-10-23T07:23:48.260Z,12.82
2022-10-23T07:29:52.660Z,13.13
2022-10-23T07:32:54.109Z,12.48
2022-10-23T07:36:15.744Z,12.95
2022-10-23T07:39:17.156Z,14.57
2022-10-23T07:42:25.300Z,14.32
2022-10-23T07:45:26.765Z,15.27
2022-10-23T07:48:28.697Z,14.27
2022-10-23T07:51:33.217Z,15.02
2022-10-23T07:54:35.397Z,15.90
2022-10-23T07:57:42.392Z,14.68
2022-10-23T08:00:57.287Z,15.27
2022-10-23T08:04:05.261Z,13.77
2022-10-23T08:07:08.449Z,15.23
2022-10-23T08:10:15.890Z,13.85
2022-10-23T08:16:40.754Z,14.15
2022-10-23T08:19:50.789Z,13.43
2022-10-23T08:22:53.631Z,11.57
2022-10-23T08:26:01.121Z,11.88
2022-10-23T08:29:05.225Z,10.63
2022-10-23T08:32:06.574Z,10.25
2022-10-23T08:35:20.370Z,10.27
2022-10-23T08:38:21.963Z,10.10
2022-10-23T08:41:33.764Z,9.50
2022-10-23T08:45:03.726Z,10.35
2022-10-23T08:48:21.039Z,10.25
2022-10-23T08:52:09.188Z,9.68
2022-10-23T08:55:26.623Z,10.37
2022-10-23T08:58:39.185Z,9.10
2022-10-23T09:01:46.368Z,9.77
2022-10-23T09:04:51.639Z,8.25
2022-10-23T09:08:04.738Z,10.13
2022-10-23T09:11:27.343Z,9.10
2022-10-23T09:14:28.700Z,9.82
2022-10-23T09:17:36.827Z,10.00
2022-10-23T09:20:40.281Z,10.10
2022-10-23T09:23:42.058Z,10.05
2022-10-23T09:26:48.944Z,8.60
2022-10-23T09:29:53.213Z,9.30
2022-10-23T09:32:54.581Z,8.93
2022-10-23T09:36:01.921Z,8.68
2022-10-23T09:39:03.328Z,9.00
2022-10-23T09:42:25.747Z,8.27
2022-10-23T09:45:35.856Z,8.43
2022-10-23T09:48:41.525Z,7.90
2022-10-23T09:51:54.189Z,8.13
2022-10-23T09:55:01.688Z,8.50
2022-10-23T09:58:03.065Z,8.35
2022-10-23T10:01:05.169Z,7.13
2022-10-23T10:04:37.401Z,8.07
2022-10-23T10:07:38.806Z,7.28
2022-10-23T10:10:47.590Z,6.97
2022-10-23T10:14:06.022Z,7.07
2022-10-23T10:17:29.138Z,6.93
2022-10-23T10:20:54.119Z,6.32
2022-10-23T10:24:05.710Z,6.88
2022-10-23T10:27:36.834Z,6.53
2022-10-23T10:31:09.183Z,5.65
2022-10-23T10:34:44.934Z,7.93
2022-10-23T10:38:01.483Z,8.07
2022-10-23T10:41:22.502Z,11.20
2022-10-23T10:44:48.271Z,6.53
2022-10-23T10:55:12.729Z,8.18
2022-10-23T11:02:13.749Z,4.50
2022-10-23T11:05:37.966Z,6.13
2022-10-23T11:08:56.083Z,9.90
2022-10-23T11:15:40.632Z,9.20
2022-10-23T11:18:46.472Z,6.55
2022-10-23T11:22:20.776Z,8.15
2022-10-23T11:25:26.405Z,7.68
2022-10-23T11:28:43.002Z,5.45
2022-10-23T11:31:59.896Z,7.95
2022-10-23T11:35:25.673Z,9.30
2022-10-23T11:38:33.310Z,12.10
2022-10-23T11:41:34.692Z,10.48
2022-10-23T11:44:46.478Z,5.35
2022-10-23T11:48:02.681Z,4.00
2022-10-23T11:51:05.235Z,4.18
2022-10-23T11:54:12.506Z,5.80
2022-10-23T11:57:16.693Z,3.75
2022-10-23T12:00:22.392Z,4.43
2022-10-23T12:03:50.910Z,3.75
2022-10-23T12:06:55.951Z,3.80
2022-10-23T12:10:00.127Z,3.08
2022-10-23T12:13:04.478Z,2.40
2022-10-23T12:16:07.122Z,2.40
2022-10-23T12:19:23.358Z,3.15
2022-10-23T12:22:32.570Z,2.35
2022-10-23T12:25:55.768Z,2.50
2022-10-23T12:29:18.963Z,2.40
2022-10-23T12:32:39.129Z,2.65
2022-10-23T12:35:43.228Z,2.63
2022-10-23T12:38:48.358Z,2.30
2022-10-23T12:41:49.815Z,2.13
2022-10-23T12:44:59.619Z,2.38
2022-10-23T12:48:00.991Z,3.08
2022-10-23T12:51:02.359Z,2.25
2022-10-23T12:54:14.440Z,2.30
2022-10-23T12:57:29.351Z,2.72
2022-10-23T13:00:30.717Z,2.35
2022-10-23T13:03:33.741Z,3.00
2022-10-23T13:09:40.797Z,2.42
2022-10-23T13:12:59.405Z,2.45
2022-10-23T13:16:00.784Z,2.42
2022-10-23T13:19:02.175Z,2.22
2022-10-23T13:22:15.773Z,2.30
2022-10-23T13:25:24.641Z,2.60
2022-10-23T13:28:35.043Z,2.20
2022-10-23T13:31:36.892Z,2.60
2022-10-23T13:34:38.506Z,2.25
2022-10-23T13:37:39.909Z,2.13
2022-10-23T13:40:41.298Z,2.45
2022-10-23T13:43:44.397Z,2.20
2022-10-23T13:49:47.197Z,3.35
2022-10-23T13:52:48.550Z,3.20
2022-10-23T13:55:52.541Z,2.90
2022-10-23T13:58:57.423Z,3.50
2022-10-23T14:01:59.020Z,3.47
2022-10-23T14:05:00.470Z,3.15
2022-10-23T14:08:01.829Z,3.35
2022-10-23T14:11:03.202Z,2.90
2022-10-23T14:14:04.579Z,2.85
2022-10-23T14:17:05.900Z,3.60
2022-10-23T14:20:08.074Z,3.97
2022-10-23T14:23:09.482Z,3.20
2022-10-23T14:26:14.044Z,3.28
2022-10-23T14:29:22.850Z,3.17
2022-10-23T14:32:25.532Z,3.20
2022-10-23T14:35:26.923Z,2.80
2022-10-23T14:38:28.464Z,2.65
2022-10-23T14:41:31.232Z,2.88
2022-10-23T14:44:32.614Z,2.53
2022-10-23T14:47:34.056Z,3.55
2022-10-23T14:50:37.760Z,3.03
2022-10-23T14:53:39.093Z,3.10
2022-10-23T14:56:40.425Z,2.97
2022-10-23T14:59:42.461Z,3.10
2022-10-23T15:02:44.006Z,3.75
2022-10-23T15:05:45.463Z,2.90
2022-10-23T15:08:52.911Z,3.35
2022-10-23T15:11:54.238Z,4.68
2022-10-23T15:14:55.707Z,3.42
2022-10-23T15:17:57.637Z,3.65
2022-10-23T15:20:59.360Z,3.17
2022-10-23T15:24:01.433Z,3.30
2022-10-23T15:27:02.878Z,3.97
2022-10-23T15:30:04.701Z,3.42
2022-10-23T15:33:06.023Z,4.18
2022-10-23T15:36:07.500Z,4.43
2022-10-23T15:39:10.732Z,4.03
2022-10-23T15:42:12.085Z,4.05
2022-10-23T15:45:13.436Z,4.13
2022-10-23T15:48:14.780Z,4.28
2022-10-23T15:51:16.480Z,4.93
2022-10-23T15:54:19.916Z,4.65
2022-10-23T15:57:21.304Z,4.28
2022-10-23T16:00:22.742Z,4.97
2022-10-23T16:03:24.175Z,5.00
2022-10-23T16:19:52.925Z,3.50
2022-10-23T16:22:54.370Z,4.28
2022-10-23T16:25:55.739Z,4.00
2022-10-23T16:29:02.477Z,4.32
2022-10-23T16:32:04.006Z,4.38
2022-10-23T16:35:08.705Z,3.97
2022-10-23T16:38:24.283Z,4.35
2022-10-23T16:41:25.666Z,4.03
2022-10-23T16:51:26.343Z,5.00
2022-10-23T16:54:27.701Z,4.20
2022-10-23T17:04:18.964Z,4.97
2022-10-23T17:13:37.287Z,4.40
2022-10-23T17:16:44.764Z,5.22
2022-10-23T17:19:46.786Z,4.70
2022-10-23T17:22:48.349Z,4.43
2022-10-23T17:25:49.722Z,5.18
2022-10-23T17:28:51.086Z,5.07
2022-10-23T17:31:52.453Z,5.20
2022-10-23T17:34:53.809Z,4.63
2022-10-23T17:37:55.168Z,5.63
2022-10-23T17:40:56.670Z,5.07
2022-10-23T17:43:59.244Z,4.95
2022-10-23T17:47:00.601Z,4.95
2022-10-23T17:50:01.975Z,4.72
2022-10-23T17:53:03.412Z,4.53
2022-10-23T17:56:07.532Z,4.60
2022-10-23T17:59:13.508Z,4.32
2022-10-23T18:02:14.996Z,4.38
2022-10-23T18:05:19.281Z,4.80
2022-10-23T18:08:20.616Z,5.50
2022-10-23T18:11:33.533Z,5.65
2022-10-23T18:14:37.463Z,5.38
2022-10-23T18:17:39.161Z,5.03
2022-10-23T18:20:40.948Z,5.70
2022-10-23T18:23:42.358Z,5.53
2022-10-23T18:26:44.229Z,4.70
2022-10-23T18:29:45.537Z,5.25
2022-10-23T18:32:46.885Z,5.15
2022-10-23T18:35:48.669Z,5.07
2022-10-23T18:38:50.763Z,5.13
2022-10-23T18:41:55.847Z,4.88
2022-10-23T18:44:57.206Z,5.43
2022-10-23T18:47:58.886Z,5.72
2022-10-23T18:51:00.271Z,5.18
2022-10-23T18:54:03.707Z,6.43
2022-10-23T18:57:05.106Z,4.95
2022-10-23T19:00:11.571Z,5.30
2022-10-23T19:03:15.169Z,5.35
2022-10-23T19:06:17.355Z,5.68
2022-10-23T19:09:19.482Z,5.63
2022-10-23T19:12:21.724Z,5.60
2022-10-23T19:15:23.130Z,6.32
2022-10-23T19:18:24.747Z,6.38
2022-10-23T19:21:29.379Z,5.82
2022-10-23T19:24:44.804Z,5.65
2022-10-23T19:27:48.043Z,5.88
2022-10-23T19:33:50.707Z,6.05
2022-10-23T19:36:53.349Z,5.80
2022-10-23T19:39:54.704Z,5.47
2022-10-23T19:42:56.104Z,5.13
2022-10-23T19:46:00.777Z,4.57
2022-10-23T19:49:02.188Z,4.68
2022-10-23T19:52:03.660Z,4.25
2022-10-23T19:55:06.724Z,4.28
2022-10-23T19:58:08.115Z,3.58
2022-10-23T20:01:16.143Z,3.80
2022-10-23T20:04:18.459Z,3.67
2022-10-23T20:07:19.811Z,3.45
2022-10-23T20:10:21.295Z,3.42
2022-10-23T20:13:23.078Z,3.80
2022-10-23T20:16:31.282Z,2.63
2022-10-23T20:19:32.637Z,2.97
2022-10-23T20:22:34.061Z,3.15
2022-10-23T20:25:35.387Z,3.17
2022-10-23T20:28:37.702Z,2.63
2022-10-23T20:31:39.122Z,2.60
2022-10-23T20:34:40.470Z,2.47
2022-10-23T20:37:42.155Z,2.50
2022-10-23T20:40:43.698Z,2.42
2022-10-23T20:43:45.040Z,2.30
2022-10-23T20:46:47.180Z,2.53
2022-10-23T20:49:48.531Z,2.58
2022-10-23T20:52:50.559Z,2.60
2022-10-23T20:55:51.886Z,2.30
2022-10-23T20:58:53.211Z,1.90
2022-10-23T21:01:55.596Z,2.10
2022-10-23T21:04:57.031Z,2.20
2022-10-23T21:07:58.404Z,2.55
2022-10-23T21:11:00.073Z,2.30
2022-10-23T21:14:01.768Z,2.55
2022-10-23T21:17:05.025Z,2.20
2022-10-23T21:23:07.970Z,2.17
2022-10-23T21:26:09.368Z,2.28
2022-10-23T21:29:20.166Z,1.95
2022-10-23T21:32:21.948Z,2.30
2022-10-23T21:35:25.321Z,2.08
2022-10-23T21:38:29.708Z,2.20
2022-10-23T21:41:33.898Z,2.03
2022-10-23T21:44:35.339Z,2.65
2022-10-23T21:47:37.934Z,2.38
2022-10-23T21:50:39.366Z,2.10
2022-10-23T21:53:40.741Z,1.85
2022-10-23T21:56:47.823Z,2.25
2022-10-23T21:59:49.286Z,2.00
2022-10-23T22:02:51.129Z,2.15
2022-10-23T22:05:52.526Z,2.42
2022-10-23T22:08:55.615Z,1.58
2022-10-23T22:11:57.486Z,1.77
2022-10-23T22:14:58.815Z,2.58
2022-10-23T22:18:00.199Z,1.33
2022-10-23T22:21:04.231Z,1.80
2022-10-23T22:24:06.011Z,1.90
2022-10-23T22:27:07.402Z,1.33
2022-10-23T22:30:09.112Z,1.33
2022-10-23T22:33:10.459Z,1.48
2022-10-23T22:36:12.123Z,1.27
2022-10-23T22:39:16.331Z,1.80
2022-10-23T22:42:17.871Z,2.00
2022-10-23T22:45:19.312Z,1.40
2022-10-23T22:48:20.655Z,1.50
2022-10-23T22:51:25.319Z,1.10
2022-10-23T22:54:26.831Z,1.23
2022-10-23T22:57:28.182Z,1.30
2022-10-23T23:00:29.532Z,1.50
2022-10-23T23:03:30.999Z,1.40
2022-10-23T23:06:34.564Z,1.17
2022-10-23T23:09:40.656Z,1.73
2022-10-23T23:12:42.042Z,1.50
2022-10-23T23:15:43.396Z,1.80
2022-10-23T23:18:44.880Z,1.90
2022-10-23T23:21:46.375Z,1.92
2022-10-23T23:24:47.753Z,1.92
2022-10-23T23:27:49.112Z,2.22
2022-10-23T23:30:50.495Z,2.00
2022-10-23T23:33:53.653Z,2.20
2022-10-23T23:39:56.379Z,2.50
2022-10-23T23:42:57.826Z,2.60
2022-10-23T23:45:59.237Z,2.58
2022-10-23T23:49:00.593Z,2.83
2022-10-23T23:52:02.025Z,2.97
2022-10-23T23:55:04.575Z,3.22
2022-10-23T23:58:05.934Z,2.30
